createdAt,value
2023-05-06T00:00:05.689Z,14.47
2023-05-06T00:02:33.754Z,14.47
2023-05-06T00:05:03.335Z,14.41
2023-05-06T00:07:31.312Z,14.49
2023-05-06T00:10:00.621Z,14.36
2023-05-06T00:12:28.686Z,14.22
2023-05-06T00:14:56.552Z,14.05
2023-05-06T00:17:24.490Z,14.18
2023-05-06T00:19:52.476Z,14.16
2023-05-06T00:22:20.459Z,14.29
2023-05-06T00:24:48.412Z,14.32
2023-05-06T00:27:17.761Z,14.40
2023-05-06T00:29:46.036Z,14.38
2023-05-06T00:32:13.941Z,14.10
2023-05-06T00:34:41.869Z,13.76
2023-05-06T00:37:09.845Z,13.82
2023-05-06T00:39:37.853Z,13.93
2023-05-06T00:42:06.017Z,13.57
2023-05-06T00:44:35.717Z,13.48
2023-05-06T00:47:03.718Z,13.59
2023-05-06T00:49:31.932Z,13.63
2023-05-06T00:52:01.327Z,13.67
2023-05-06T00:54:29.957Z,13.73
2023-05-06T00:56:58.017Z,13.73
2023-05-06T00:59:25.886Z,13.70
2023-05-06T01:01:55.139Z,13.76
2023-05-06T01:04:24.097Z,13.82
2023-05-06T01:06:59.764Z,13.61
2023-05-06T01:09:37.567Z,13.68
2023-05-06T01:12:11.191Z,13.58
2023-05-06T01:14:48.060Z,13.47
2023-05-06T01:17:19.783Z,13.19
2023-05-06T01:19:50.417Z,12.98
2023-05-06T01:22:19.526Z,12.97
2023-05-06T01:24:48.870Z,13.14
2023-05-06T01:27:18.321Z,13.18
2023-05-06T01:29:48.371Z,13.37
2023-05-06T01:32:32.313Z,13.19
2023-05-06T01:35:07.621Z,13.10
2023-05-06T01:37:43.109Z,13.19
2023-05-06T01:40:13.815Z,13.20
2023-05-06T01:42:42.382Z,13.19
2023-05-06T01:45:12.640Z,13.24
2023-05-06T01:47:42.662Z,13.13
2023-05-06T01:50:11.554Z,13.22
2023-05-06T01:52:39.566Z,13.15
2023-05-06T01:55:08.859Z,13.12
2023-05-06T01:57:38.547Z,13.00
2023-05-06T02:00:07.805Z,13.08
2023-05-06T02:02:35.798Z,13.13
2023-05-06T02:05:04.112Z,13.06
2023-05-06T02:07:32.028Z,13.07
2023-05-06T02:09:59.933Z,13.06
2023-05-06T02:12:27.822Z,13.10
2023-05-06T02:14:57.597Z,13.16
2023-05-06T02:17:25.477Z,13.01
2023-05-06T02:19:53.360Z,13.04
2023-05-06T02:22:21.305Z,13.13
2023-05-06T02:24:49.198Z,12.98
2023-05-06T02:27:17.144Z,13.28
2023-05-06T02:29:45.132Z,13.25
2023-05-06T02:32:14.376Z,13.11
2023-05-06T02:34:42.368Z,13.09
2023-05-06T02:37:10.363Z,13.11
2023-05-06T02:39:38.236Z,13.10
2023-05-06T02:42:06.497Z,13.07
2023-05-06T02:44:34.571Z,12.90
2023-05-06T02:47:02.522Z,12.99
2023-05-06T02:49:31.822Z,13.08
2023-05-06T02:51:59.743Z,13.14
2023-05-06T02:54:28.386Z,13.21
2023-05-06T02:56:56.379Z,13.30
2023-05-06T02:59:24.754Z,13.17
2023-05-06T03:01:52.646Z,13.10
2023-05-06T03:04:21.324Z,13.13
2023-05-06T03:06:50.565Z,13.06
2023-05-06T03:09:18.467Z,13.11
2023-05-06T03:11:46.378Z,13.23
2023-05-06T03:14:14.351Z,13.13
2023-05-06T03:16:42.329Z,13.13
2023-05-06T03:19:10.185Z,13.07
2023-05-06T03:21:38.348Z,12.92
2023-05-06T03:24:07.959Z,12.87
2023-05-06T03:26:35.941Z,12.87
2023-05-06T03:29:03.880Z,12.80
2023-05-06T03:31:32.135Z,12.87
2023-05-06T03:34:00.151Z,12.82
2023-05-06T03:36:28.123Z,13.00
2023-05-06T03:38:56.232Z,12.99
2023-05-06T03:41:25.749Z,13.06
2023-05-06T03:43:55.651Z,13.12
2023-05-06T03:46:23.625Z,13.24
2023-05-06T03:48:51.471Z,13.26
2023-05-06T03:51:19.630Z,13.24
2023-05-06T03:53:47.614Z,13.30
2023-05-06T03:56:18.157Z,13.28
2023-05-06T03:58:47.441Z,13.38
2023-05-06T04:01:17.262Z,13.37
2023-05-06T04:03:45.817Z,13.39
2023-05-06T04:06:13.740Z,13.33
2023-05-06T04:08:41.626Z,13.36
2023-05-06T04:11:09.943Z,13.35
2023-05-06T04:13:37.865Z,13.28
2023-05-06T04:16:07.748Z,13.44
2023-05-06T04:18:35.638Z,13.52
2023-05-06T04:21:03.594Z,13.53
2023-05-06T04:23:31.470Z,13.66
2023-05-06T04:25:59.459Z,13.87
2023-05-06T04:28:27.359Z,13.96
2023-05-06T04:30:55.280Z,14.00
2023-05-06T04:33:25.630Z,14.15
2023-05-06T04:35:54.835Z,13.95
2023-05-06T04:38:25.813Z,13.90
2023-05-06T04:40:54.056Z,13.76
2023-05-06T04:43:22.012Z,13.82
2023-05-06T04:45:50.209Z,13.97
2023-05-06T04:48:18.928Z,14.03
2023-05-06T04:50:48.252Z,14.27
2023-05-06T04:53:17.081Z,14.33
2023-05-06T04:55:45.066Z,14.41
2023-05-06T04:58:13.006Z,14.49
2023-05-06T05:00:41.151Z,14.39
2023-05-06T05:03:09.074Z,14.26
2023-05-06T05:05:37.032Z,14.42
2023-05-06T05:08:06.870Z,14.56
2023-05-06T05:10:34.783Z,14.88
2023-05-06T05:13:02.876Z,15.08
2023-05-06T05:15:30.849Z,15.39
2023-05-06T05:17:58.826Z,15.43
2023-05-06T05:20:26.813Z,15.64
2023-05-06T05:22:55.044Z,16.09
2023-05-06T05:25:24.712Z,16.35
2023-05-06T05:27:52.574Z,16.57
2023-05-06T05:30:20.873Z,16.49
2023-05-06T05:32:48.854Z,16.76
2023-05-06T05:35:16.865Z,16.82
2023-05-06T05:37:44.852Z,16.93
2023-05-06T05:40:13.383Z,17.34
2023-05-06T05:42:42.718Z,17.31
2023-05-06T05:45:11.628Z,17.28
2023-05-06T05:47:39.679Z,17.51
2023-05-06T05:50:09.102Z,18.27
2023-05-06T05:52:37.051Z,19.10
2023-05-06T05:55:05.436Z,20.42
2023-05-06T05:57:33.400Z,20.91
2023-05-06T06:00:03.006Z,20.99
2023-05-06T06:02:31.005Z,20.37
2023-05-06T06:04:59.064Z,19.30
2023-05-06T06:07:27.109Z,19.23
2023-05-06T06:09:54.993Z,18.98
2023-05-06T06:12:23.615Z,18.40
2023-05-06T06:14:51.711Z,18.42
2023-05-06T06:17:21.005Z,18.57
2023-05-06T06:19:49.054Z,18.57
2023-05-06T06:22:16.908Z,18.14
2023-05-06T06:24:44.933Z,18.19
2023-05-06T06:27:12.910Z,18.29
2023-05-06T06:29:40.820Z,18.03
2023-05-06T06:32:08.783Z,18.46
2023-05-06T06:34:38.056Z,18.45
2023-05-06T06:37:07.381Z,18.45
2023-05-06T06:39:35.958Z,18.28
2023-05-06T06:42:04.363Z,18.06
2023-05-06T06:44:32.356Z,18.09
2023-05-06T06:47:00.317Z,18.04
2023-05-06T06:49:28.769Z,18.36
2023-05-06T06:51:58.062Z,18.32
2023-05-06T06:54:26.183Z,18.33
2023-05-06T06:56:56.028Z,18.24
2023-05-06T06:59:24.037Z,18.19
2023-05-06T07:01:52.366Z,18.42
2023-05-06T07:04:20.280Z,18.56
2023-05-06T07:06:48.156Z,18.72
2023-05-06T07:09:17.409Z,18.85
2023-05-06T07:11:45.491Z,18.97
2023-05-06T07:14:14.033Z,19.13
2023-05-06T07:16:43.914Z,19.35
2023-05-06T07:19:13.179Z,19.35
2023-05-06T07:21:41.165Z,19.42
2023-05-06T07:24:09.812Z,19.19
2023-05-06T07:26:39.381Z,19.18
2023-05-06T07:29:07.264Z,19.33
2023-05-06T07:31:35.252Z,19.52
2023-05-06T07:34:03.223Z,19.77
2023-05-06T07:36:36.059Z,19.81
2023-05-06T07:39:04.905Z,19.96
2023-05-06T07:41:32.809Z,19.94
2023-05-06T07:44:02.142Z,19.77
2023-05-06T07:46:30.682Z,19.70
2023-05-06T07:48:58.749Z,19.62
2023-05-06T07:51:27.152Z,19.97
2023-05-06T07:53:55.027Z,19.64
2023-05-06T07:56:22.963Z,19.32
2023-05-06T07:58:50.896Z,19.89
2023-05-06T08:01:20.176Z,20.03
2023-05-06T08:03:48.173Z,20.16
2023-05-06T08:06:16.107Z,20.48
2023-05-06T08:08:44.043Z,20.71
2023-05-06T08:11:11.960Z,20.83
2023-05-06T08:13:39.935Z,20.62
2023-05-06T08:16:08.557Z,20.83
2023-05-06T08:18:37.924Z,20.92
2023-05-06T08:21:06.520Z,20.79
2023-05-06T08:23:34.512Z,20.77
2023-05-06T08:26:02.503Z,20.72
2023-05-06T08:28:30.467Z,20.33
2023-05-06T08:30:58.375Z,20.30
2023-05-06T08:33:26.407Z,20.65
2023-05-06T08:35:57.588Z,20.03
2023-05-06T08:38:26.761Z,19.86
2023-05-06T08:40:55.348Z,19.81
2023-05-06T08:43:27.232Z,20.36
2023-05-06T08:45:56.128Z,20.52
2023-05-06T08:48:24.163Z,20.84
2023-05-06T08:50:53.101Z,20.54
2023-05-06T08:53:23.097Z,20.49
2023-05-06T08:55:53.562Z,19.99
2023-05-06T08:58:24.554Z,20.07
2023-05-06T09:00:52.674Z,20.38
2023-05-06T09:03:20.910Z,20.33
2023-05-06T09:05:49.086Z,20.42
2023-05-06T09:08:17.066Z,20.44
2023-05-06T09:10:47.377Z,20.44
2023-05-06T09:13:17.295Z,20.29
2023-05-06T09:15:47.378Z,20.22
2023-05-06T09:18:15.753Z,20.16
2023-05-06T09:20:45.493Z,20.30
2023-05-06T09:23:15.251Z,20.07
2023-05-06T09:25:44.504Z,19.92
2023-05-06T09:28:15.325Z,19.92
2023-05-06T09:30:44.857Z,20.18
2023-05-06T09:33:13.302Z,20.51
2023-05-06T09:35:43.203Z,20.47
2023-05-06T09:38:11.988Z,20.21
2023-05-06T09:40:40.496Z,19.86
2023-05-06T09:43:08.973Z,19.85
2023-05-06T09:45:38.572Z,20.01
2023-05-06T09:48:09.535Z,20.34
2023-05-06T09:50:37.972Z,20.84
2023-05-06T09:53:06.716Z,20.95
2023-05-06T09:55:34.829Z,20.96
2023-05-06T09:58:04.788Z,21.16
2023-05-06T10:00:33.098Z,21.14
2023-05-06T10:03:03.733Z,21.30
2023-05-06T10:05:33.267Z,21.52
2023-05-06T10:08:04.341Z,21.45
2023-05-06T10:10:34.607Z,21.75
2023-05-06T10:13:04.483Z,21.46
2023-05-06T10:15:33.744Z,21.03
2023-05-06T10:18:04.359Z,21.29
2023-05-06T10:20:35.212Z,21.64
2023-05-06T10:23:10.959Z,21.55
2023-05-06T10:25:40.741Z,21.44
2023-05-06T10:28:17.221Z,21.19
2023-05-06T10:30:53.050Z,21.06
2023-05-06T10:33:25.990Z,20.70
2023-05-06T10:35:59.448Z,20.91
2023-05-06T10:38:32.196Z,20.74
2023-05-06T10:41:00.524Z,21.07
2023-05-06T10:43:30.947Z,21.18
2023-05-06T10:46:04.126Z,21.16
2023-05-06T10:48:34.083Z,20.84
2023-05-06T10:51:27.349Z,20.50
2023-05-06T10:54:23.047Z,20.63
2023-05-06T10:57:11.997Z,20.32
2023-05-06T10:59:46.674Z,20.21
2023-05-06T11:02:15.619Z,20.12
2023-05-06T11:04:51.337Z,20.01
2023-05-06T11:07:24.722Z,20.04
2023-05-06T11:09:56.938Z,20.03
2023-05-06T11:12:46.122Z,19.97
2023-05-06T11:15:21.748Z,20.03
2023-05-06T11:17:49.682Z,20.13
2023-05-06T11:20:23.851Z,20.41
2023-05-06T11:22:51.913Z,20.40
2023-05-06T11:25:41.914Z,20.57
2023-05-06T11:28:11.081Z,20.32
2023-05-06T11:30:42.310Z,20.46
2023-05-06T11:33:14.894Z,20.37
2023-05-06T11:35:44.252Z,20.64
2023-05-06T11:38:12.214Z,20.78
2023-05-06T11:40:42.594Z,20.97
2023-05-06T11:43:14.475Z,20.98
2023-05-06T11:45:43.647Z,20.62
2023-05-06T11:48:13.360Z,20.83
2023-05-06T11:50:47.670Z,20.99
2023-05-06T11:53:18.955Z,20.72
2023-05-06T11:55:48.083Z,20.62
2023-05-06T11:58:16.731Z,20.58
2023-05-06T12:00:51.409Z,20.36
2023-05-06T12:03:19.854Z,20.61
2023-05-06T12:05:49.920Z,20.56
2023-05-06T12:08:27.511Z,20.74
2023-05-06T12:10:58.860Z,20.41
2023-05-06T12:13:27.801Z,20.35
2023-05-06T12:15:56.692Z,20.26
2023-05-06T12:18:26.024Z,20.22
2023-05-06T12:20:56.545Z,20.28
2023-05-06T12:23:24.593Z,20.25
2023-05-06T12:26:02.639Z,20.15
2023-05-06T12:28:32.122Z,20.31
2023-05-06T12:31:00.028Z,20.30
2023-05-06T12:33:27.970Z,20.29
2023-05-06T12:36:07.808Z,20.33
2023-05-06T12:38:35.687Z,20.55
2023-05-06T12:41:04.387Z,20.57
2023-05-06T12:43:32.735Z,20.50
2023-05-06T12:46:07.499Z,20.42
2023-05-06T12:48:35.896Z,20.41
2023-05-06T12:53:57.731Z,20.40
2023-05-06T12:56:25.777Z,20.52
2023-05-06T12:59:00.890Z,20.71
2023-05-06T13:01:28.913Z,20.82
2023-05-06T13:03:58.306Z,21.11
2023-05-06T13:06:26.232Z,21.23
2023-05-06T13:08:54.190Z,21.51
2023-05-06T13:11:25.737Z,21.72
2023-05-06T13:13:53.734Z,21.72
2023-05-06T13:16:21.696Z,21.71
2023-05-06T13:18:50.598Z,21.70
2023-05-06T13:21:18.560Z,21.49
2023-05-06T13:23:48.060Z,21.36
2023-05-06T13:26:17.391Z,21.34
2023-05-06T13:28:46.664Z,21.03
2023-05-06T13:31:14.637Z,20.85
2023-05-06T13:33:42.557Z,20.87
2023-05-06T13:36:10.955Z,20.89
2023-05-06T13:38:39.319Z,20.87
2023-05-06T13:41:09.304Z,20.84
2023-05-06T13:43:37.178Z,21.16
2023-05-06T13:46:06.559Z,21.40
2023-05-06T13:48:34.543Z,21.83
2023-05-06T13:51:02.653Z,22.13
2023-05-06T13:53:30.779Z,21.64
2023-05-06T13:55:58.654Z,21.42
2023-05-06T13:58:26.789Z,21.13
2023-05-06T14:00:54.701Z,20.83
2023-05-06T14:03:23.942Z,20.95
2023-05-06T14:05:51.955Z,21.07
2023-05-06T14:08:19.894Z,21.00
2023-05-06T14:10:47.980Z,21.33
2023-05-06T14:13:15.888Z,21.35
2023-05-06T14:15:43.835Z,21.19
2023-05-06T14:18:11.811Z,21.30
2023-05-06T14:20:41.098Z,21.21
2023-05-06T14:23:09.450Z,21.29
2023-05-06T14:25:37.408Z,21.53
2023-05-06T14:28:05.510Z,21.58
2023-05-06T14:30:34.363Z,21.63
2023-05-06T14:33:02.394Z,21.63
2023-05-06T14:35:30.432Z,21.73
2023-05-06T14:37:59.760Z,21.63
2023-05-06T14:40:27.952Z,21.36
2023-05-06T14:42:55.887Z,21.15
2023-05-06T14:45:23.877Z,21.04
2023-05-06T14:47:51.919Z,21.19
2023-05-06T14:50:19.852Z,21.07
2023-05-06T14:52:48.243Z,21.08
2023-05-06T14:55:17.775Z,21.01
2023-05-06T14:57:45.641Z,21.23
2023-05-06T15:00:14.954Z,20.93
2023-05-06T15:02:43.021Z,20.75
2023-05-06T15:05:12.309Z,20.89
2023-05-06T15:07:40.564Z,20.85
2023-05-06T15:10:09.042Z,20.79
2023-05-06T15:12:38.356Z,20.74
2023-05-06T15:15:07.690Z,20.72
2023-05-06T15:17:35.596Z,20.59
2023-05-06T15:20:04.445Z,20.42
2023-05-06T15:22:32.334Z,20.37
2023-05-06T15:25:00.538Z,20.45
2023-05-06T15:27:28.447Z,20.68
2023-05-06T15:29:57.742Z,20.63
2023-05-06T15:32:26.149Z,20.65
2023-05-06T15:34:54.186Z,20.73
2023-05-06T15:37:22.308Z,20.74
2023-05-06T15:39:50.382Z,20.82
2023-05-06T15:42:18.275Z,20.75
2023-05-06T15:44:47.984Z,20.67
2023-05-06T15:47:17.326Z,20.77
2023-05-06T15:49:54.047Z,20.75
2023-05-06T15:52:22.945Z,20.72
2023-05-06T15:54:50.934Z,20.34
2023-05-06T15:57:19.189Z,20.17
2023-05-06T15:59:47.100Z,20.03
2023-05-06T16:02:26.683Z,20.01
2023-05-06T16:04:56.464Z,20.02
2023-05-06T16:07:24.523Z,20.05
2023-05-06T16:09:52.390Z,20.05
2023-05-06T16:12:20.396Z,20.08
2023-05-06T16:14:48.326Z,20.06
2023-05-06T16:17:16.822Z,20.13
2023-05-06T16:19:44.679Z,20.13
2023-05-06T16:22:13.948Z,20.19
2023-05-06T16:24:41.813Z,20.16
2023-05-06T16:27:09.706Z,20.16
2023-05-06T16:29:37.625Z,20.12
2023-05-06T16:32:06.020Z,20.14
2023-05-06T16:34:33.883Z,20.05
2023-05-06T16:37:01.795Z,19.92
2023-05-06T16:39:31.064Z,19.98
2023-05-06T16:41:58.956Z,19.89
2023-05-06T16:44:27.072Z,19.77
2023-05-06T16:46:55.117Z,19.74
2023-05-06T16:49:23.121Z,19.79
2023-05-06T16:51:51.028Z,19.74
2023-05-06T16:54:18.946Z,19.73
2023-05-06T16:56:51.999Z,19.73
2023-05-06T16:59:22.261Z,19.55
2023-05-06T17:01:50.766Z,19.68
2023-05-06T17:04:18.749Z,19.52
2023-05-06T17:06:46.682Z,19.60
2023-05-06T17:09:14.511Z,19.60
2023-05-06T17:11:42.664Z,19.54
2023-05-06T17:14:12.235Z,19.39
2023-05-06T17:16:40.410Z,19.44
2023-05-06T17:19:08.412Z,19.39
2023-05-06T17:21:36.436Z,19.32
2023-05-06T17:24:04.621Z,19.34
2023-05-06T17:26:33.275Z,19.38
2023-05-06T17:29:01.415Z,19.29
2023-05-06T17:31:30.822Z,19.33
2023-05-06T17:33:58.744Z,19.29
2023-05-06T17:36:26.653Z,19.20
2023-05-06T17:39:02.710Z,19.27
2023-05-06T17:41:30.677Z,19.21
2023-05-06T17:43:58.602Z,19.23
2023-05-06T17:46:26.773Z,19.19
2023-05-06T17:48:56.021Z,19.04
2023-05-06T17:51:23.923Z,19.12
2023-05-06T17:53:51.887Z,18.99
2023-05-06T17:56:20.284Z,19.07
2023-05-06T17:58:48.692Z,19.01
2023-05-06T18:01:16.699Z,18.91
2023-05-06T18:03:44.981Z,18.98
2023-05-06T18:06:14.402Z,18.95
2023-05-06T18:08:42.377Z,18.99
2023-05-06T18:11:11.047Z,18.99
2023-05-06T18:13:39.125Z,18.90
2023-05-06T18:16:07.693Z,18.82
2023-05-06T18:18:35.736Z,18.81
2023-05-06T18:21:03.630Z,18.75
2023-05-06T18:23:33.276Z,18.79
2023-05-06T18:26:01.247Z,18.73
2023-05-06T18:28:29.110Z,18.76
2023-05-06T18:30:57.014Z,18.74
2023-05-06T18:33:24.968Z,18.75
2023-05-06T18:35:52.947Z,18.63
2023-05-06T18:38:21.046Z,18.64
2023-05-06T18:40:50.348Z,18.54
2023-05-06T18:43:18.233Z,18.41
2023-05-06T18:45:46.120Z,18.40
2023-05-06T18:48:14.053Z,18.34
2023-05-06T18:50:42.907Z,18.28
2023-05-06T18:53:10.855Z,18.30
2023-05-06T18:55:38.748Z,18.27
2023-05-06T18:58:08.035Z,18.24
2023-05-06T19:00:36.052Z,18.06
2023-05-06T19:03:03.948Z,18.20
2023-05-06T19:05:31.980Z,18.18
2023-05-06T19:07:59.933Z,18.02
2023-05-06T19:10:27.836Z,17.98
2023-05-06T19:12:55.920Z,17.81
2023-05-06T19:15:25.212Z,17.69
2023-05-06T19:17:53.114Z,17.70
2023-05-06T19:20:21.151Z,17.72
2023-05-06T19:22:49.119Z,17.68
2023-05-06T19:25:17.268Z,17.75
2023-05-06T19:27:45.368Z,17.72
2023-05-06T19:30:13.424Z,17.73
2023-05-06T19:32:44.532Z,17.69
2023-05-06T19:35:13.149Z,17.66
2023-05-06T19:37:41.140Z,17.71
2023-05-06T19:40:10.169Z,17.73
2023-05-06T19:42:38.028Z,17.77
2023-05-06T19:45:08.581Z,17.56
2023-05-06T19:47:36.629Z,17.32
2023-05-06T19:50:07.360Z,17.25
2023-05-06T19:52:35.478Z,17.15
2023-05-06T19:55:03.468Z,17.35
2023-05-06T19:57:31.897Z,17.44
2023-05-06T20:00:00.497Z,17.30
2023-05-06T20:02:28.550Z,17.31
2023-05-06T20:04:56.507Z,17.33
2023-05-06T20:07:25.738Z,17.45
2023-05-06T20:09:55.491Z,17.27
2023-05-06T20:12:23.537Z,17.41
2023-05-06T20:14:51.569Z,17.46
2023-05-06T20:17:19.584Z,17.51
2023-05-06T20:19:47.942Z,17.40
2023-05-06T20:22:16.085Z,17.28
2023-05-06T20:24:45.860Z,17.23
2023-05-06T20:27:13.707Z,17.14
2023-05-06T20:29:42.604Z,17.14
2023-05-06T20:32:10.561Z,17.20
2023-05-06T20:34:38.532Z,17.01
2023-05-06T20:37:06.777Z,16.92
2023-05-06T20:39:34.813Z,17.05
2023-05-06T20:42:04.160Z,16.98
2023-05-06T20:44:32.068Z,16.60
2023-05-06T20:46:59.931Z,16.60
2023-05-06T20:49:27.841Z,16.52
2023-05-06T20:51:56.136Z,16.55
2023-05-06T20:54:24.124Z,16.72
2023-05-06T20:56:52.051Z,16.73
2023-05-06T20:59:21.874Z,16.67
2023-05-06T21:01:49.812Z,16.73
2023-05-06T21:04:17.867Z,16.80
2023-05-06T21:06:46.401Z,16.79
2023-05-06T21:09:14.416Z,16.89
2023-05-06T21:11:42.373Z,16.92
2023-05-06T21:14:10.305Z,16.76
2023-05-06T21:16:40.648Z,16.89
2023-05-06T21:19:08.682Z,16.89
2023-05-06T21:21:36.716Z,16.94
2023-05-06T21:24:04.937Z,16.92
2023-05-06T21:26:33.818Z,16.71
2023-05-06T21:29:01.754Z,16.43
2023-05-06T21:31:30.346Z,16.22
2023-05-06T21:34:00.283Z,16.35
2023-05-06T21:36:28.283Z,16.17
2023-05-06T21:39:09.213Z,16.01
2023-05-06T21:41:37.548Z,15.73
2023-05-06T21:44:06.905Z,15.72
2023-05-06T21:46:35.166Z,15.69
2023-05-06T21:49:04.819Z,15.82
2023-05-06T21:51:34.419Z,15.61
2023-05-06T21:54:02.587Z,15.56
2023-05-06T21:56:30.593Z,15.62
2023-05-06T21:58:58.494Z,15.57
2023-05-06T22:01:27.053Z,15.49
2023-05-06T22:03:55.647Z,15.53
2023-05-06T22:06:25.132Z,15.48
2023-05-06T22:08:53.385Z,15.24
2023-05-06T22:11:22.678Z,15.08
2023-05-06T22:13:50.537Z,14.88
2023-05-06T22:16:18.530Z,14.79
2023-05-06T22:18:46.565Z,14.69
2023-05-06T22:21:14.482Z,14.56
2023-05-06T22:23:43.725Z,14.36
2023-05-06T22:26:12.124Z,14.52
2023-05-06T22:28:40.064Z,14.58
2023-05-06T22:31:08.047Z,14.62
2023-05-06T22:33:35.974Z,14.66
2023-05-06T22:36:03.930Z,14.67
2023-05-06T22:38:31.896Z,14.66
2023-05-06T22:41:01.085Z,14.48
2023-05-06T22:43:28.946Z,14.24
2023-05-06T22:45:56.971Z,14.46
2023-05-06T22:48:25.206Z,14.41
2023-05-06T22:50:53.796Z,14.50
2023-05-06T22:53:21.734Z,14.67
2023-05-06T22:55:49.659Z,14.51
2023-05-06T22:58:18.975Z,14.41
2023-05-06T23:00:47.968Z,14.41
2023-05-06T23:03:17.985Z,14.40
2023-05-06T23:05:45.982Z,14.39
2023-05-06T23:08:13.973Z,14.35
2023-05-06T23:10:41.950Z,14.35
2023-05-06T23:13:10.075Z,14.03
2023-05-06T23:15:39.452Z,14.05
2023-05-06T23:18:07.828Z,13.93
2023-05-06T23:20:35.873Z,13.84
2023-05-06T23:23:03.764Z,13.96
2023-05-06T23:25:31.691Z,13.81
2023-05-06T23:27:59.535Z,13.84
2023-05-06T23:30:27.590Z,13.84
2023-05-06T23:32:56.897Z,13.81
2023-05-06T23:35:24.840Z,13.83
2023-05-06T23:37:52.779Z,13.81
2023-05-06T23:40:20.845Z,13.77
2023-05-06T23:42:48.777Z,13.84
2023-05-06T23:45:16.801Z,13.79
2023-05-06T23:47:44.717Z,13.83
2023-05-06T23:50:14.419Z,13.82
2023-05-06T23:52:42.576Z,13.84
2023-05-06T23:55:11.204Z,13.72
2023-05-06T23:57:39.361Z,13.72
